Roselle, IL (60172)

8:25 AM CDT on September 05, 2015 (GMT -0500)
KILROSEL4 | | Change Station
CLOSE
Current Station
Personal Weather Station
Location: Roselle, IL
Elevation: 771 ft
Nearby Weather Stations

Elev 771 ft 41.98 °N, 88.07 °W | Updated 15 minutes ago

Partly Cloudy
Partly Cloudy
73.6 °F
Feels Like 72 °F
N
0.2
Wind Variable Wind from SW
Gusts 0.2 mph

Today
High -- | Low -- °F
--% Chance of Precip.
Yesterday
High -- | Low -- °F
Precip. -- in
6:21 AM 7:19 PM
Waning Gibbous, 48% visible
Pressure 30.07 in
Visibility 10.0 miles
Clouds Few 5000 ft
Scattered Clouds 7500 ft
Mostly Cloudy 12000 ft
Mostly Cloudy 25000 ft
Heat Index 72 °F
Dew Point Not available.
Humidity Not available.
Rainfall 0.00 in
Snow Depth Not available.
UV 1 out of 12
Pollen 4.20 out of 12
Air Quality Not available.
Flu Activity Not available.
METAR KORD 051251Z 22005KT 10SM FEW050 SCT075 BKN120 BKN250 23/19 A3009 RMK AO2 SLP183 OCNL LTGICCG DSNT SE CB DSNT SE T02280194
Pressure 30.07 in
Visibility 10.0 miles
Clouds Few 5000 ft
Scattered Clouds 7500 ft
Mostly Cloudy 12000 ft
Mostly Cloudy 25000 ft
Heat Index 72 °F
Dew Point Not available.
Humidity Not available.
Rainfall 0.00 in
Snow Depth Not available.
UV 1 out of 12
Pollen 4.20 out of 12
Air Quality Not available.
Flu Activity Not available.
METAR KORD 051251Z 22005KT 10SM FEW050 SCT075 BKN120 BKN250 23/19 A3009 RMK AO2 SLP183 OCNL LTGICCG DSNT SE CB DSNT SE T02280194

10-Day Weather Forecast

×

Almanac

Astronomy

Sep. 05, 2015 Rise Set
Actual Time
Civil Twilight
Nautical Twilight
Astronomical Twilight
Moon
Length of Visible Light
Length of Day
Tomorrow will be .
, % of the Moon is Illuminated

Today's Extremes

State Highs State Lows

Community

WunderPhotos

Upload Photos

1,852,454 photos uploaded!

WunderBlogs® & News

Nearby

Air Quality

  Air Quality AQ Index Pollutant
Not available.

Snow Depth

Station Depth Elevation

Earthquake Activity

City Distance Mag. Time & Date
Minimum magnitude displayed is 2.5.

Coastal Water Temperatures

Place Temperature

Stations

Nearby Weather Stations

Station Location Temp. Windchill Dew Point Humidity Wind Precip. Elev Updated Type